createdAt,value
2022-12-23T00:00:44.220Z,0.68
2022-12-23T00:03:12.153Z,0.50
2022-12-23T00:05:40.332Z,0.50
2022-12-23T00:08:08.711Z,0.52
2022-12-23T00:10:39.884Z,0.60
2022-12-23T00:13:26.914Z,0.50
2022-12-23T00:16:08.301Z,0.65
2022-12-23T00:18:36.080Z,0.50
2022-12-23T00:21:10.417Z,0.60
2022-12-23T00:23:41.103Z,0.60
2022-12-23T00:26:20.363Z,0.77
2022-12-23T00:28:47.711Z,0.73
2022-12-23T00:31:18.713Z,0.98
2022-12-23T00:33:51.303Z,0.85
2022-12-23T00:36:28.935Z,0.68
2022-12-23T00:39:18.391Z,0.77
2022-12-23T00:42:04.553Z,1.30
2022-12-23T00:44:31.700Z,1.70
2022-12-23T00:46:58.828Z,2.40
2022-12-23T00:49:44.162Z,2.85
2022-12-23T00:52:15.629Z,2.30
2022-12-23T00:54:43.454Z,2.60
2022-12-23T00:57:10.803Z,2.35
2022-12-23T00:59:38.031Z,2.65
2022-12-23T01:02:23.777Z,2.20
2022-12-23T01:05:09.533Z,1.70
2022-12-23T01:07:36.892Z,1.40
2022-12-23T01:10:04.480Z,1.40
2022-12-23T01:12:31.526Z,1.30
2022-12-23T01:14:58.831Z,1.02
2022-12-23T01:17:25.946Z,0.90
2022-12-23T01:19:53.051Z,1.00
2022-12-23T01:22:20.158Z,0.80
2022-12-23T01:24:47.229Z,0.80
2022-12-23T01:27:14.263Z,0.98
2022-12-23T01:29:41.389Z,0.80
2022-12-23T01:32:08.475Z,0.50
2022-12-23T01:34:37.338Z,0.73
2022-12-23T01:37:05.139Z,0.93
2022-12-23T01:39:32.261Z,1.27
2022-12-23T01:42:17.809Z,1.33
2022-12-23T01:45:25.270Z,1.25
2022-12-23T01:48:26.998Z,1.48
2022-12-23T01:51:01.760Z,1.40
2022-12-23T01:53:36.348Z,1.52
2022-12-23T01:56:12.036Z,1.80
2022-12-23T01:58:47.305Z,1.50
2022-12-23T02:01:33.315Z,1.40
2022-12-23T02:04:06.360Z,1.63
2022-12-23T02:07:00.551Z,1.58
2022-12-23T02:09:36.789Z,1.40
2022-12-23T02:12:34.037Z,1.48
2022-12-23T02:15:33.815Z,1.20
2022-12-23T02:18:53.845Z,1.20
2022-12-23T02:21:46.649Z,1.10
2022-12-23T02:24:39.753Z,0.80
2022-12-23T02:27:25.151Z,0.77
2022-12-23T02:30:20.664Z,0.70
2022-12-23T02:33:27.359Z,1.00
2022-12-23T02:36:18.967Z,0.80
2022-12-23T02:39:03.131Z,0.90
2022-12-23T02:42:01.624Z,0.90
2022-12-23T02:44:41.566Z,1.05
2022-12-23T02:47:14.728Z,1.02
2022-12-23T02:49:50.215Z,1.10
2022-12-23T02:52:21.649Z,1.08
2022-12-23T02:54:57.632Z,1.05
2022-12-23T02:57:31.565Z,0.88
2022-12-23T03:00:00.567Z,1.20
2022-12-23T03:02:27.917Z,1.20
2022-12-23T03:04:55.100Z,1.23
2022-12-23T03:07:33.237Z,1.75
2022-12-23T03:10:28.103Z,1.67
2022-12-23T03:13:36.380Z,2.38
2022-12-23T03:16:11.233Z,1.08
2022-12-23T03:18:47.331Z,1.27
2022-12-23T03:21:48.790Z,1.15
2022-12-23T03:24:30.037Z,1.10
2022-12-23T03:27:18.369Z,1.02
2022-12-23T03:29:58.277Z,1.30
2022-12-23T03:32:28.895Z,1.20
2022-12-23T03:34:59.428Z,1.20
2022-12-23T03:37:30.437Z,1.45
2022-12-23T03:40:16.187Z,1.00
2022-12-23T03:42:45.327Z,0.95
2022-12-23T03:45:38.612Z,1.10
2022-12-23T03:48:20.041Z,1.13
2022-12-23T03:50:54.283Z,0.82
2022-12-23T03:53:28.540Z,1.00
2022-12-23T03:56:10.266Z,0.93
2022-12-23T03:58:43.437Z,0.90
2022-12-23T04:01:21.846Z,1.10
2022-12-23T04:04:08.452Z,1.20
2022-12-23T04:07:25.582Z,1.20
2022-12-23T04:09:54.247Z,1.00
2022-12-23T04:12:24.967Z,0.85
2022-12-23T04:14:52.365Z,0.73
2022-12-23T04:17:20.377Z,0.70
2022-12-23T04:19:47.818Z,1.15
2022-12-23T04:22:16.715Z,0.98
2022-12-23T04:24:43.809Z,1.33
2022-12-23T04:27:14.441Z,0.88
2022-12-23T04:29:41.763Z,0.80
2022-12-23T04:32:09.139Z,0.90
2022-12-23T04:34:37.028Z,1.00
2022-12-23T04:37:04.325Z,0.90
2022-12-23T04:39:31.465Z,1.10
2022-12-23T04:41:58.526Z,0.95
2022-12-23T04:44:25.581Z,0.80
2022-12-23T04:46:52.792Z,1.08
2022-12-23T04:49:19.975Z,1.20
2022-12-23T04:51:47.112Z,0.80
2022-12-23T04:54:14.233Z,0.98
2022-12-23T04:56:41.330Z,0.90
2022-12-23T04:59:08.593Z,1.08
2022-12-23T05:01:35.873Z,0.73
2022-12-23T05:04:02.962Z,0.70
2022-12-23T05:06:29.991Z,0.70
2022-12-23T05:08:57.104Z,0.90
2022-12-23T05:11:24.119Z,0.98
2022-12-23T05:13:51.161Z,1.00
2022-12-23T05:16:18.311Z,0.90
2022-12-23T05:18:45.445Z,0.90
2022-12-23T05:21:12.972Z,0.80
2022-12-23T05:23:40.277Z,0.90
2022-12-23T05:26:07.402Z,1.40
2022-12-23T05:28:34.701Z,1.45
2022-12-23T05:31:07.618Z,3.70
2022-12-23T05:33:35.692Z,5.13
2022-12-23T05:36:03.632Z,5.85
2022-12-23T05:38:31.141Z,6.43
2022-12-23T05:40:58.473Z,7.45
2022-12-23T05:43:25.741Z,5.50
2022-12-23T05:45:52.951Z,4.20
2022-12-23T05:48:20.070Z,3.75
2022-12-23T05:50:51.259Z,2.63
2022-12-23T05:53:19.280Z,7.97
2022-12-23T05:55:47.317Z,7.03
2022-12-23T05:58:14.757Z,5.18
2022-12-23T06:00:41.893Z,3.95
2022-12-23T06:03:09.117Z,4.15
2022-12-23T06:05:39.436Z,3.60
2022-12-23T06:08:06.667Z,2.60
2022-12-23T06:10:33.681Z,2.05
2022-12-23T06:13:00.756Z,1.63
2022-12-23T06:15:27.866Z,1.63
2022-12-23T06:17:56.217Z,1.63
2022-12-23T06:20:23.264Z,1.30
2022-12-23T06:22:50.364Z,1.38
2022-12-23T06:25:17.510Z,1.30
2022-12-23T06:27:44.677Z,1.10
2022-12-23T06:30:12.503Z,1.02
2022-12-23T06:32:39.982Z,1.20
2022-12-23T06:35:08.745Z,1.02
2022-12-23T06:37:35.886Z,1.27
2022-12-23T06:40:02.977Z,2.10
2022-12-23T06:42:30.117Z,2.00
2022-12-23T06:44:57.103Z,2.30
2022-12-23T06:47:24.174Z,1.92
2022-12-23T06:49:51.312Z,2.10
2022-12-23T06:52:18.345Z,1.80
2022-12-23T06:54:45.377Z,1.80
2022-12-23T06:57:12.543Z,2.40
2022-12-23T06:59:39.586Z,2.42
2022-12-23T07:02:07.536Z,2.10
2022-12-23T07:04:34.732Z,2.00
2022-12-23T07:07:01.746Z,1.77
2022-12-23T07:09:28.838Z,1.80
2022-12-23T07:11:56.065Z,1.65
2022-12-23T07:14:23.115Z,1.23
2022-12-23T07:16:50.229Z,1.27
2022-12-23T07:19:17.288Z,1.27
2022-12-23T07:21:44.407Z,1.27
2022-12-23T07:24:11.607Z,1.83
2022-12-23T07:26:38.684Z,1.75
2022-12-23T07:29:05.762Z,1.60
2022-12-23T07:31:32.819Z,1.58
2022-12-23T07:33:59.927Z,1.20
2022-12-23T07:36:27.059Z,1.38
2022-12-23T07:38:54.163Z,1.13
2022-12-23T07:41:21.209Z,1.35
2022-12-23T07:43:48.295Z,1.20
2022-12-23T07:46:15.427Z,1.05
2022-12-23T07:48:42.897Z,1.30
2022-12-23T07:51:10.300Z,1.00
2022-12-23T07:53:37.397Z,0.90
2022-12-23T07:56:04.995Z,0.90
2022-12-23T07:58:32.143Z,1.20
2022-12-23T08:01:05.682Z,1.30
2022-12-23T08:03:33.079Z,1.17
2022-12-23T08:06:12.732Z,1.20
2022-12-23T08:08:42.255Z,1.10
2022-12-23T08:11:11.779Z,1.02
2022-12-23T08:13:43.062Z,1.40
2022-12-23T08:16:11.778Z,1.40
2022-12-23T08:18:41.511Z,1.15
2022-12-23T08:21:19.173Z,1.20
2022-12-23T08:23:47.631Z,1.20
2022-12-23T08:26:19.698Z,1.00
2022-12-23T08:28:47.312Z,1.10
2022-12-23T08:31:22.767Z,1.25
2022-12-23T08:33:54.518Z,1.40
2022-12-23T08:36:31.772Z,1.05
2022-12-23T08:39:02.567Z,0.88
2022-12-23T08:41:34.247Z,0.90
2022-12-23T08:44:01.511Z,0.90
2022-12-23T08:46:29.227Z,0.88
2022-12-23T08:48:57.063Z,0.85
2022-12-23T08:51:25.716Z,1.00
2022-12-23T08:54:00.828Z,1.20
2022-12-23T08:56:39.327Z,1.40
2022-12-23T08:59:07.159Z,1.77
2022-12-23T09:01:35.065Z,1.90
2022-12-23T09:04:04.825Z,1.35
2022-12-23T09:06:41.580Z,1.50
2022-12-23T09:09:11.557Z,1.38
2022-12-23T09:11:39.127Z,1.30
2022-12-23T09:14:07.366Z,1.27
2022-12-23T09:16:34.616Z,1.20
2022-12-23T09:19:01.873Z,1.00
2022-12-23T09:21:29.439Z,1.10
2022-12-23T09:23:56.525Z,1.13
2022-12-23T09:26:27.564Z,1.02
2022-12-23T09:28:56.421Z,0.98
2022-12-23T09:31:26.683Z,1.08
2022-12-23T09:33:57.032Z,1.10
2022-12-23T09:36:24.124Z,0.90
2022-12-23T09:38:56.567Z,1.15
2022-12-23T09:41:55.483Z,0.95
2022-12-23T09:44:53.182Z,0.60
2022-12-23T09:47:25.080Z,0.75
2022-12-23T09:52:39.503Z,0.57
2022-12-23T09:55:11.303Z,0.70
2022-12-23T10:01:11.557Z,0.68
2022-12-23T10:04:11.118Z,1.65
2022-12-23T10:06:40.262Z,1.40
2022-12-23T10:09:09.939Z,1.50
2022-12-23T10:11:44.314Z,1.15
2022-12-23T10:14:29.084Z,1.13
2022-12-23T10:17:02.691Z,1.10
2022-12-23T10:19:44.588Z,1.27
2022-12-23T10:22:33.087Z,2.33
2022-12-23T10:25:02.434Z,1.95
2022-12-23T10:27:35.846Z,1.83
2022-12-23T10:30:53.545Z,1.85
2022-12-23T10:33:26.948Z,1.88
2022-12-23T10:36:20.612Z,2.00
2022-12-23T10:39:15.051Z,1.95
2022-12-23T10:42:26.900Z,1.48
2022-12-23T10:45:34.271Z,1.15
2022-12-23T10:48:50.915Z,1.20
2022-12-23T10:51:59.341Z,1.00
2022-12-23T10:54:36.407Z,1.00
2022-12-23T10:57:06.647Z,0.90
2022-12-23T10:59:36.855Z,0.93
2022-12-23T11:02:12.649Z,0.73
2022-12-23T11:04:42.646Z,0.80
2022-12-23T11:10:19.741Z,0.50
2022-12-23T11:12:51.190Z,0.50
2022-12-23T11:15:40.088Z,0.32
2022-12-23T11:18:21.217Z,0.40
2022-12-23T11:21:06.523Z,0.40
2022-12-23T11:23:37.199Z,0.40
2022-12-23T11:26:07.005Z,0.28
2022-12-23T11:28:39.061Z,0.40
2022-12-23T11:31:12.065Z,0.55
2022-12-23T11:33:49.255Z,0.60
2022-12-23T11:36:24.092Z,0.60
2022-12-23T11:39:04.555Z,0.60
2022-12-23T11:41:47.672Z,0.60
2022-12-23T11:44:24.414Z,0.70
2022-12-23T11:46:52.051Z,0.70
2022-12-23T11:49:31.488Z,0.60
2022-12-23T11:52:14.992Z,0.80
2022-12-23T11:54:54.560Z,0.65
2022-12-23T11:57:44.683Z,0.75
2022-12-23T12:00:30.584Z,1.10
2022-12-23T12:03:01.095Z,0.60
2022-12-23T12:05:40.862Z,0.70
2022-12-23T12:08:16.654Z,0.70
2022-12-23T12:10:43.813Z,0.60
2022-12-23T12:13:40.384Z,0.50
2022-12-23T12:16:31.341Z,0.47
2022-12-23T12:19:05.919Z,0.43
2022-12-23T12:21:38.336Z,0.60
2022-12-23T12:24:37.030Z,0.47
2022-12-23T12:27:07.749Z,1.50
2022-12-23T12:29:49.159Z,1.60
2022-12-23T12:32:40.979Z,1.50
2022-12-23T12:35:21.851Z,0.95
2022-12-23T12:38:05.435Z,0.95
2022-12-23T12:40:42.570Z,1.15
2022-12-23T12:43:27.898Z,1.08
2022-12-23T12:46:39.844Z,0.80
2022-12-23T12:49:33.164Z,0.90
2022-12-23T12:52:12.978Z,0.57
2022-12-23T12:54:54.735Z,0.88
2022-12-23T12:57:24.319Z,0.82
2022-12-23T13:00:03.633Z,1.30
2022-12-23T13:03:15.624Z,1.20
2022-12-23T13:06:27.701Z,1.33
2022-12-23T13:09:12.839Z,2.20
2022-12-23T13:12:05.324Z,2.85
2022-12-23T13:14:55.564Z,2.83
2022-12-23T13:17:36.276Z,2.83
2022-12-23T13:20:22.243Z,2.40
2022-12-23T13:22:54.894Z,2.47
2022-12-23T13:25:30.462Z,2.40
2022-12-23T13:28:40.797Z,1.23
2022-12-23T13:31:42.951Z,1.80
2022-12-23T13:34:30.972Z,3.72
2022-12-23T13:37:27.836Z,2.33
2022-12-23T13:40:00.794Z,2.45
2022-12-23T13:42:39.689Z,2.20
2022-12-23T13:45:13.939Z,1.00
2022-12-23T13:47:53.613Z,1.25
2022-12-23T13:50:25.924Z,1.67
2022-12-23T13:53:23.226Z,1.15
2022-12-23T13:56:17.823Z,1.38
2022-12-23T13:58:49.318Z,1.30
2022-12-23T14:01:16.343Z,0.95
2022-12-23T14:03:43.956Z,1.10
2022-12-23T14:06:33.781Z,1.20
2022-12-23T14:09:02.131Z,1.30
2022-12-23T14:11:32.066Z,1.23
2022-12-23T14:14:02.851Z,1.23
2022-12-23T14:17:00.876Z,1.30
2022-12-23T14:19:37.071Z,0.80
2022-12-23T14:22:40.221Z,1.10
2022-12-23T14:25:19.221Z,1.40
2022-12-23T14:28:24.986Z,1.00
2022-12-23T14:30:52.292Z,0.95
2022-12-23T14:33:27.571Z,1.00
2022-12-23T14:36:28.666Z,0.85
2022-12-23T14:39:14.124Z,0.90
2022-12-23T14:41:52.588Z,0.75
2022-12-23T14:44:37.796Z,0.77
2022-12-23T14:47:30.205Z,0.70
2022-12-23T14:49:57.463Z,0.60
2022-12-23T14:52:48.025Z,0.70
2022-12-23T14:55:32.339Z,0.60
2022-12-23T14:58:10.385Z,0.80
2022-12-23T15:01:08.916Z,0.38
2022-12-23T15:03:53.280Z,0.47
2022-12-23T15:06:42.597Z,0.60
2022-12-23T15:09:26.079Z,1.00
2022-12-23T15:11:55.654Z,1.10
2022-12-23T15:14:40.173Z,1.10
2022-12-23T15:17:29.032Z,1.20
2022-12-23T15:20:15.718Z,0.95
2022-12-23T15:22:45.476Z,0.75
2022-12-23T15:25:34.324Z,0.80
2022-12-23T15:28:03.647Z,0.80
2022-12-23T15:30:37.071Z,0.68
2022-12-23T15:33:27.913Z,0.90
2022-12-23T15:35:55.170Z,1.00
2022-12-23T15:38:34.775Z,1.60
2022-12-23T15:41:13.849Z,1.60
2022-12-23T15:43:42.252Z,2.03
2022-12-23T15:46:20.786Z,2.13
2022-12-23T15:48:50.839Z,2.17
2022-12-23T15:52:08.055Z,2.28
2022-12-23T15:54:45.749Z,2.35
2022-12-23T15:57:18.617Z,2.47
2022-12-23T15:59:46.089Z,3.00
2022-12-23T16:02:50.177Z,3.72
2022-12-23T16:05:08.047Z,4.82
2022-12-23T16:07:41.432Z,5.05
2022-12-23T16:10:20.943Z,5.18
2022-12-23T16:12:52.580Z,4.93
2022-12-23T16:15:27.888Z,3.97
2022-12-23T16:18:20.675Z,4.53
2022-12-23T16:20:56.209Z,3.83
2022-12-23T16:23:24.682Z,2.97
2022-12-23T16:25:53.573Z,2.50
2022-12-23T16:28:31.245Z,2.75
2022-12-23T16:30:58.850Z,3.72
2022-12-23T16:33:36.082Z,2.90
2022-12-23T16:36:26.773Z,2.30
2022-12-23T16:39:22.252Z,1.88
2022-12-23T16:41:50.665Z,1.38
2022-12-23T16:44:17.950Z,1.10
2022-12-23T16:46:48.928Z,1.15
2022-12-23T16:49:20.057Z,1.00
2022-12-23T16:51:48.095Z,1.00
2022-12-23T16:54:19.095Z,1.80
2022-12-23T16:56:55.817Z,6.18
2022-12-23T16:59:24.895Z,8.85
2022-12-23T17:01:53.696Z,6.47
2022-12-23T17:04:23.679Z,4.20
2022-12-23T17:06:50.747Z,3.28
2022-12-23T17:09:17.954Z,2.63
2022-12-23T17:11:53.080Z,2.15
2022-12-23T17:14:23.613Z,2.13
2022-12-23T17:16:51.652Z,6.28
2022-12-23T17:19:28.858Z,3.08
2022-12-23T17:22:03.328Z,3.92
2022-12-23T17:24:31.742Z,6.15
2022-12-23T17:26:58.837Z,2.85
2022-12-23T17:29:26.267Z,2.80
2022-12-23T17:31:53.649Z,1.98
2022-12-23T17:34:24.245Z,1.45
2022-12-23T17:36:51.692Z,2.58
2022-12-23T17:39:20.896Z,2.08
2022-12-23T17:41:48.834Z,1.60
2022-12-23T17:44:17.438Z,1.30
2022-12-23T17:46:46.591Z,1.23
2022-12-23T17:49:13.930Z,1.40
2022-12-23T17:51:42.677Z,1.33
2022-12-23T17:54:26.299Z,1.80
2022-12-23T17:56:53.463Z,1.15
2022-12-23T17:59:21.061Z,0.90
2022-12-23T18:01:48.306Z,0.95
2022-12-23T18:04:15.653Z,0.90
2022-12-23T18:06:42.669Z,1.73
2022-12-23T18:09:09.748Z,2.33
2022-12-23T18:11:41.490Z,2.85
2022-12-23T18:14:28.108Z,2.45
2022-12-23T18:16:55.395Z,2.55
2022-12-23T18:19:22.540Z,2.83
2022-12-23T18:21:50.589Z,2.60
2022-12-23T18:24:18.338Z,2.60
2022-12-23T18:26:46.278Z,2.97
2022-12-23T18:29:13.506Z,2.30
2022-12-23T18:31:51.040Z,1.95
2022-12-23T18:34:19.854Z,1.80
2022-12-23T18:36:48.304Z,1.70
2022-12-23T18:39:15.690Z,1.85
2022-12-23T18:41:42.743Z,2.60
2022-12-23T18:44:19.484Z,2.28
2022-12-23T18:46:47.646Z,2.80
2022-12-23T18:49:14.718Z,3.28
2022-12-23T18:51:41.803Z,2.88
2022-12-23T18:54:17.004Z,2.47
2022-12-23T18:56:44.555Z,1.63
2022-12-23T18:59:27.375Z,1.40
2022-12-23T19:01:57.769Z,1.10
2022-12-23T19:04:26.627Z,0.90
2022-12-23T19:06:55.757Z,1.00
2022-12-23T19:09:24.676Z,1.77
2022-12-23T19:11:54.098Z,1.70
2022-12-23T19:14:21.489Z,1.23
2022-12-23T19:16:52.080Z,1.00
2022-12-23T19:19:20.822Z,0.90
2022-12-23T19:21:47.921Z,0.80
2022-12-23T19:24:14.984Z,0.82
2022-12-23T19:26:42.100Z,0.75
2022-12-23T19:29:09.425Z,0.65
2022-12-23T19:31:36.573Z,0.88
2022-12-23T19:34:03.660Z,0.82
2022-12-23T19:36:30.991Z,1.00
2022-12-23T19:38:58.823Z,0.70
2022-12-23T19:41:26.137Z,1.55
2022-12-23T19:43:53.274Z,2.72
2022-12-23T19:46:20.386Z,2.40
2022-12-23T19:48:54.355Z,2.85
2022-12-23T19:51:21.457Z,1.70
2022-12-23T19:53:51.504Z,1.17
2022-12-23T19:56:23.222Z,1.20
2022-12-23T19:58:50.975Z,1.20
2022-12-23T20:01:25.660Z,0.65
2022-12-23T20:03:55.317Z,0.73
2022-12-23T20:06:35.661Z,0.50
2022-12-23T20:09:06.551Z,0.57
2022-12-23T20:11:37.633Z,0.40
2022-12-23T20:14:05.489Z,0.30
2022-12-23T20:16:33.668Z,0.30
2022-12-23T20:19:00.866Z,0.40
2022-12-23T20:21:28.121Z,0.32
2022-12-23T20:23:55.545Z,0.40
2022-12-23T20:26:23.932Z,0.40
2022-12-23T20:28:51.833Z,0.32
2022-12-23T20:31:23.610Z,0.20
2022-12-23T20:36:23.616Z,0.40
2022-12-23T20:38:52.387Z,0.20
2022-12-23T20:41:22.716Z,0.50
2022-12-23T20:44:23.360Z,0.50
2022-12-23T20:46:37.549Z,0.80
2022-12-23T20:49:04.682Z,0.70
2022-12-23T20:51:31.740Z,1.00
2022-12-23T20:54:00.091Z,0.65
2022-12-23T20:56:29.400Z,0.50
2022-12-23T20:59:01.685Z,0.45
2022-12-23T21:01:38.678Z,0.40
2022-12-23T21:04:12.008Z,0.30
2022-12-23T21:06:40.068Z,0.30
2022-12-23T21:09:11.189Z,0.30
2022-12-23T21:11:41.912Z,0.20
2022-12-23T21:14:10.678Z,0.15
2022-12-23T21:16:39.358Z,0.20
2022-12-23T21:19:17.473Z,0.20
2022-12-23T21:21:45.025Z,0.20
2022-12-23T21:24:12.651Z,0.40
2022-12-23T21:26:40.003Z,0.80
2022-12-23T21:29:09.517Z,0.40
2022-12-23T21:31:40.917Z,0.20
2022-12-23T21:34:09.092Z,0.20
2022-12-23T21:36:38.916Z,0.30
2022-12-23T21:39:08.018Z,0.25
2022-12-23T21:41:38.788Z,0.30
2022-12-23T21:44:06.445Z,0.10
2022-12-23T21:46:34.300Z,0.10
2022-12-23T21:49:01.801Z,0.15
2022-12-23T21:51:39.510Z,0.20
2022-12-23T21:54:07.336Z,0.10
2022-12-23T21:56:34.599Z,0.20
2022-12-23T21:59:10.502Z,0.20
2022-12-23T22:01:37.599Z,0.30
2022-12-23T22:04:05.218Z,0.43
2022-12-23T22:06:39.146Z,0.20
2022-12-23T22:09:07.558Z,0.17
2022-12-23T22:11:36.746Z,0.10
2022-12-23T22:14:06.829Z,0.30
2022-12-23T22:16:35.495Z,0.20
2022-12-23T22:19:04.381Z,0.15
2022-12-23T22:21:32.913Z,0.30
2022-12-23T22:24:00.569Z,0.10
2022-12-23T22:26:31.328Z,0.10
2022-12-23T22:29:01.949Z,0.10
2022-12-23T22:31:47.998Z,0.20
2022-12-23T22:34:20.009Z,0.20
2022-12-23T22:36:48.520Z,0.57
2022-12-23T22:39:21.180Z,2.53
2022-12-23T22:41:51.153Z,17.27
2022-12-23T22:44:18.935Z,10.77
2022-12-23T22:46:46.300Z,6.65
2022-12-23T22:49:16.747Z,3.33
2022-12-23T22:51:44.454Z,2.15
2022-12-23T22:54:11.863Z,1.58
2022-12-23T22:56:38.982Z,1.05
2022-12-23T22:59:06.316Z,0.70
2022-12-23T23:01:35.877Z,0.60
2022-12-23T23:04:04.589Z,0.40
2022-12-23T23:06:38.138Z,0.35
2022-12-23T23:09:13.306Z,0.20
2022-12-23T23:11:41.151Z,0.60
2022-12-23T23:14:08.563Z,0.28
2022-12-23T23:16:35.824Z,0.40
2022-12-23T23:19:04.689Z,0.30
2022-12-23T23:21:32.548Z,0.20
2022-12-23T23:23:59.649Z,0.20
2022-12-23T23:26:27.539Z,0.13
2022-12-23T23:28:56.126Z,0.20
2022-12-23T23:34:11.537Z,0.17
2022-12-23T23:36:38.838Z,0.20
2022-12-23T23:39:06.026Z,0.10
2022-12-23T23:41:33.149Z,0.15
2022-12-23T23:44:00.214Z,0.20
2022-12-23T23:46:27.568Z,0.10
2022-12-23T23:48:54.711Z,0.10
2022-12-23T23:51:21.810Z,0.20
2022-12-23T23:53:49.098Z,0.20
2022-12-23T23:56:22.030Z,0.30
2022-12-23T23:58:52.079Z,0.30
